sensor_id;sensor_type;location;lat;lon;timestamp;pressure;altitude;pressure_sealevel;temperature;humidity
12951;BME280;6540;50.858;7.232;2022-07-30T00:01:02;51404.72;;;-142.34;23.84
12951;BME280;6540;50.858;7.232;2022-07-30T00:03:27;51398.66;;;-142.34;23.29
12951;BME280;6540;50.858;7.232;2022-07-30T00:05:54;51326.03;;;-142.34;22.77
12951;BME280;6540;50.858;7.232;2022-07-30T00:08:21;51378.50;;;-142.34;23.88
12951;BME280;6540;50.858;7.232;2022-07-30T00:10:46;51380.50;;;-142.34;23.31
12951;BME280;6540;50.858;7.232;2022-07-30T00:13:12;51412.78;;;-142.34;23.34
12951;BME280;6540;50.858;7.232;2022-07-30T00:15:37;51386.56;;;-142.34;23.84
12951;BME280;6540;50.858;7.232;2022-07-30T00:18:02;51366.38;;;-142.34;23.43
12951;BME280;6540;50.858;7.232;2022-07-30T00:20:28;51342.19;;;-142.34;23.16
12951;BME280;6540;50.858;7.232;2022-07-30T00:22:54;51374.44;;;-142.34;22.89
12951;BME280;6540;50.858;7.232;2022-07-30T00:25:19;51368.41;;;-142.34;22.85
12951;BME280;6540;50.858;7.232;2022-07-30T00:27:45;51390.59;;;-142.34;23.19
12951;BME280;6540;50.858;7.232;2022-07-30T00:30:11;51394.63;;;-142.34;23.29
12951;BME280;6540;50.858;7.232;2022-07-30T00:32:36;51372.44;;;-142.34;23.44
12951;BME280;6540;50.858;7.232;2022-07-30T00:35:02;51422.88;;;-142.34;24.04
12951;BME280;6540;50.858;7.232;2022-07-30T00:37:27;51394.63;;;-142.34;23.75
12951;BME280;6540;50.858;7.232;2022-07-30T00:39:53;51410.75;;;-142.34;23.15
12951;BME280;6540;50.858;7.232;2022-07-30T00:42:18;51346.22;;;-142.34;22.95
12951;BME280;6540;50.858;7.232;2022-07-30T00:44:50;51332.09;;;-142.34;22.84
12951;BME280;6540;50.858;7.232;2022-07-30T00:47:16;51334.13;;;-142.34;22.86
12951;BME280;6540;50.858;7.232;2022-07-30T00:49:42;51358.31;;;-142.34;23.02
12951;BME280;6540;50.858;7.232;2022-07-30T00:52:07;51412.78;;;-142.34;23.77
12951;BME280;6540;50.858;7.232;2022-07-30T00:54:32;51382.53;;;-142.34;23.32
12951;BME280;6540;50.858;7.232;2022-07-30T00:56:58;51364.38;;;-142.34;23.00
12951;BME280;6540;50.858;7.232;2022-07-30T00:59:23;51390.59;;;-142.34;23.63
12951;BME280;6540;50.858;7.232;2022-07-30T01:01:51;51366.38;;;-142.34;23.65
12951;BME280;6540;50.858;7.232;2022-07-30T01:04:17;51358.31;;;-142.34;23.03
12951;BME280;6540;50.858;7.232;2022-07-30T01:06:42;51390.59;;;-142.34;23.14
12951;BME280;6540;50.858;7.232;2022-07-30T01:09:08;51382.53;;;-142.34;23.17
12951;BME280;6540;50.858;7.232;2022-07-30T01:11:37;51418.84;;;-142.34;23.60
12951;BME280;6540;50.858;7.232;2022-07-30T01:14:04;51398.66;;;-142.34;24.04
12951;BME280;6540;50.858;7.232;2022-07-30T01:16:30;51436.97;;;-142.34;23.89
12951;BME280;6540;50.858;7.232;2022-07-30T01:18:57;51364.38;;;-142.34;23.30
12951;BME280;6540;50.858;7.232;2022-07-30T01:21:46;51354.28;;;-142.34;22.79
12951;BME280;6540;50.858;7.232;2022-07-30T01:24:37;51358.31;;;-142.34;23.10
12951;BME280;6540;50.858;7.232;2022-07-30T01:27:05;51398.66;;;-142.34;23.76
12951;BME280;6540;50.858;7.232;2022-07-30T01:29:32;51424.88;;;-142.34;23.79
12951;BME280;6540;50.858;7.232;2022-07-30T01:31:59;51426.91;;;-142.34;23.86
12951;BME280;6540;50.858;7.232;2022-07-30T01:34:27;51420.84;;;-142.34;24.20
12951;BME280;6540;50.858;7.232;2022-07-30T01:36:55;51420.84;;;-142.34;23.91
12951;BME280;6540;50.858;7.232;2022-07-30T01:39:24;51368.41;;;-142.34;23.30
12951;BME280;6540;50.858;7.232;2022-07-30T01:41:53;51374.44;;;-142.34;23.21
12951;BME280;6540;50.858;7.232;2022-07-30T01:44:21;51370.41;;;-142.34;23.07
12951;BME280;6540;50.858;7.232;2022-07-30T01:46:48;51424.88;;;-142.34;23.83
12951;BME280;6540;50.858;7.232;2022-07-30T01:49:14;51370.41;;;-142.34;23.04
12951;BME280;6540;50.858;7.232;2022-07-30T01:51:41;51356.31;;;-142.34;22.93
12951;BME280;6540;50.858;7.232;2022-07-30T01:54:08;51398.66;;;-142.34;23.21
12951;BME280;6540;50.858;7.232;2022-07-30T01:56:36;51404.72;;;-142.34;23.63
12951;BME280;6540;50.858;7.232;2022-07-30T01:59:02;51475.31;;;-142.34;24.58
12951;BME280;6540;50.858;7.232;2022-07-30T02:01:29;51418.84;;;-142.34;23.78
12951;BME280;6540;50.858;7.232;2022-07-30T02:03:54;51461.19;;;-142.34;24.64
12951;BME280;6540;50.858;7.232;2022-07-30T02:06:22;51475.31;;;-142.34;24.72
12951;BME280;6540;50.858;7.232;2022-07-30T02:08:55;51463.22;;;-142.34;24.43
12951;BME280;6540;50.858;7.232;2022-07-30T02:11:24;51420.84;;;-142.34;23.74
12951;BME280;6540;50.858;7.232;2022-07-30T02:14:16;51402.69;;;-142.34;23.53
12951;BME280;6540;50.858;7.232;2022-07-30T02:16:44;51382.53;;;-142.34;23.64
12951;BME280;6540;50.858;7.232;2022-07-30T02:19:15;51447.06;;;-142.34;23.83
12951;BME280;6540;50.858;7.232;2022-07-30T02:21:45;51455.13;;;-142.34;24.17
12951;BME280;6540;50.858;7.232;2022-07-30T02:24:13;51422.88;;;-142.34;24.00
12951;BME280;6540;50.858;7.232;2022-07-30T02:26:40;51406.72;;;-142.34;23.33
12951;BME280;6540;50.858;7.232;2022-07-30T02:29:07;51422.88;;;-142.34;23.95
12951;BME280;6540;50.858;7.232;2022-07-30T02:31:35;51447.06;;;-142.34;23.99
12951;BME280;6540;50.858;7.232;2022-07-30T02:34:03;51436.97;;;-142.34;24.14
12951;BME280;6540;50.858;7.232;2022-07-30T02:36:31;51386.56;;;-142.34;23.29
12951;BME280;6540;50.858;7.232;2022-07-30T02:38:57;51414.78;;;-142.34;23.76
12951;BME280;6540;50.858;7.232;2022-07-30T02:41:25;51418.84;;;-142.34;23.73
12951;BME280;6540;50.858;7.232;2022-07-30T02:43:54;51443.03;;;-142.34;24.26
12951;BME280;6540;50.858;7.232;2022-07-30T02:46:21;51443.03;;;-142.34;24.00
12951;BME280;6540;50.858;7.232;2022-07-30T02:48:49;51434.97;;;-142.34;23.53
12951;BME280;6540;50.858;7.232;2022-07-30T02:51:16;51443.03;;;-142.34;23.83
12951;BME280;6540;50.858;7.232;2022-07-30T02:53:45;51396.63;;;-142.34;24.14
12951;BME280;6540;50.858;7.232;2022-07-30T02:56:11;51443.03;;;-142.34;23.94
12951;BME280;6540;50.858;7.232;2022-07-30T02:58:38;51439.00;;;-142.34;23.71
12951;BME280;6540;50.858;7.232;2022-07-30T03:01:05;51475.31;;;-142.34;24.73
12951;BME280;6540;50.858;7.232;2022-07-30T03:03:32;51410.75;;;-142.34;23.76
12951;BME280;6540;50.858;7.232;2022-07-30T03:05:59;51418.84;;;-142.34;23.54
12951;BME280;6540;50.858;7.232;2022-07-30T03:08:27;51487.41;;;-142.34;24.19
12951;BME280;6540;50.858;7.232;2022-07-30T03:10:55;51465.22;;;-142.34;23.87
12951;BME280;6540;50.858;7.232;2022-07-30T03:13:22;51445.06;;;-142.34;23.83
12951;BME280;6540;50.858;7.232;2022-07-30T03:15:49;51455.13;;;-142.34;23.98
12951;BME280;6540;50.858;7.232;2022-07-30T03:18:17;51477.31;;;-142.34;23.77
12951;BME280;6540;50.858;7.232;2022-07-30T03:20:45;51457.16;;;-142.34;23.87
12951;BME280;6540;50.858;7.232;2022-07-30T03:23:14;51441.03;;;-142.34;23.67
12951;BME280;6540;50.858;7.232;2022-07-30T03:25:41;51422.88;;;-142.34;23.79
12951;BME280;6540;50.858;7.232;2022-07-30T03:28:09;51434.97;;;-142.34;23.86
12951;BME280;6540;50.858;7.232;2022-07-30T03:30:36;51475.31;;;-142.34;23.60
12951;BME280;6540;50.858;7.232;2022-07-30T03:33:02;51441.03;;;-142.34;23.88
12951;BME280;6540;50.858;7.232;2022-07-30T03:35:27;51491.44;;;-142.34;24.15
12951;BME280;6540;50.858;7.232;2022-07-30T03:37:54;51434.97;;;-142.34;23.90
12951;BME280;6540;50.858;7.232;2022-07-30T03:40:20;51473.28;;;-142.34;24.17
12951;BME280;6540;50.858;7.232;2022-07-30T03:42:47;51459.16;;;-142.34;24.07
12951;BME280;6540;50.858;7.232;2022-07-30T03:45:14;51434.97;;;-142.34;23.90
12951;BME280;6540;50.858;7.232;2022-07-30T03:47:40;51410.75;;;-142.34;23.33
12951;BME280;6540;50.858;7.232;2022-07-30T03:50:08;51394.63;;;-142.34;23.16
12951;BME280;6540;50.858;7.232;2022-07-30T03:52:35;51390.59;;;-142.34;22.97
12951;BME280;6540;50.858;7.232;2022-07-30T03:55:06;51378.50;;;-142.34;22.98
12951;BME280;6540;50.858;7.232;2022-07-30T03:57:32;51420.84;;;-142.34;23.14
12951;BME280;6540;50.858;7.232;2022-07-30T03:59:57;51463.22;;;-142.34;23.86
12951;BME280;6540;50.858;7.232;2022-07-30T04:02:23;51434.97;;;-142.34;23.98
12951;BME280;6540;50.858;7.232;2022-07-30T04:04:49;51499.50;;;-142.34;24.31
12951;BME280;6540;50.858;7.232;2022-07-30T04:07:14;51459.16;;;-142.34;24.27
12951;BME280;6540;50.858;7.232;2022-07-30T04:09:40;51479.34;;;-142.34;24.15
12951;BME280;6540;50.858;7.232;2022-07-30T04:12:05;51426.91;;;-142.34;23.91
12951;BME280;6540;50.858;7.232;2022-07-30T04:14:43;51479.34;;;-142.34;23.56
12951;BME280;6540;50.858;7.232;2022-07-30T04:17:17;51439.00;;;-142.34;23.36
12951;BME280;6540;50.858;7.232;2022-07-30T04:19:50;51455.13;;;-142.34;23.57
12951;BME280;6540;50.858;7.232;2022-07-30T04:22:19;51390.59;;;-142.34;23.46
12951;BME280;6540;50.858;7.232;2022-07-30T04:24:46;51402.69;;;-142.34;22.92
12951;BME280;6540;50.858;7.232;2022-07-30T04:27:13;51414.78;;;-142.34;23.16
12951;BME280;6540;50.858;7.232;2022-07-30T04:29:40;51430.94;;;-142.34;23.92
12951;BME280;6540;50.858;7.232;2022-07-30T04:32:07;51457.16;;;-142.34;23.66
12951;BME280;6540;50.858;7.232;2022-07-30T04:34:34;51471.28;;;-142.34;23.34
12951;BME280;6540;50.858;7.232;2022-07-30T04:36:59;51424.88;;;-142.34;23.20
12951;BME280;6540;50.858;7.232;2022-07-30T04:39:25;51422.88;;;-142.34;23.38
12951;BME280;6540;50.858;7.232;2022-07-30T04:41:50;51420.84;;;-142.34;23.13
12951;BME280;6540;50.858;7.232;2022-07-30T04:44:17;51410.75;;;-142.34;23.14
12951;BME280;6540;50.858;7.232;2022-07-30T04:46:43;51386.56;;;-142.34;23.25
12951;BME280;6540;50.858;7.232;2022-07-30T04:49:09;51374.44;;;-142.34;22.99
12951;BME280;6540;50.858;7.232;2022-07-30T04:51:36;51366.38;;;-142.34;22.78
12951;BME280;6540;50.858;7.232;2022-07-30T04:54:04;51362.34;;;-142.34;22.67
12951;BME280;6540;50.858;7.232;2022-07-30T04:56:32;51378.50;;;-142.34;23.25
12951;BME280;6540;50.858;7.232;2022-07-30T04:58:59;51404.72;;;-142.34;23.63
12951;BME280;6540;50.858;7.232;2022-07-30T05:01:30;51386.56;;;-142.34;23.41
12951;BME280;6540;50.858;7.232;2022-07-30T05:03:58;51434.97;;;-142.34;23.89
12951;BME280;6540;50.858;7.232;2022-07-30T05:06:25;51457.16;;;-142.34;24.19
12951;BME280;6540;50.858;7.232;2022-07-30T05:08:52;51455.13;;;-142.34;23.85
12951;BME280;6540;50.858;7.232;2022-07-30T05:11:17;51463.22;;;-142.34;24.72
12951;BME280;6540;50.858;7.232;2022-07-30T05:13:43;51404.72;;;-142.34;23.93
12951;BME280;6540;50.858;7.232;2022-07-30T05:16:10;51402.69;;;-142.34;23.75
12951;BME280;6540;50.858;7.232;2022-07-30T05:18:36;51352.28;;;-142.34;22.92
12951;BME280;6540;50.858;7.232;2022-07-30T05:21:02;51394.63;;;-142.34;23.73
12951;BME280;6540;50.858;7.232;2022-07-30T05:23:28;51334.13;;;-142.34;23.05
12951;BME280;6540;50.858;7.232;2022-07-30T05:25:54;51352.28;;;-142.34;23.07
12951;BME280;6540;50.858;7.232;2022-07-30T05:28:19;51380.50;;;-142.34;23.52
12951;BME280;6540;50.858;7.232;2022-07-30T05:30:46;51410.75;;;-142.34;24.00
12951;BME280;6540;50.858;7.232;2022-07-30T05:33:11;51432.94;;;-142.34;23.69
12951;BME280;6540;50.858;7.232;2022-07-30T05:35:37;51340.16;;;-142.34;22.97
12951;BME280;6540;50.858;7.232;2022-07-30T05:38:02;51422.88;;;-142.34;24.14
12951;BME280;6540;50.858;7.232;2022-07-30T05:40:28;51418.84;;;-142.34;24.37
12951;BME280;6540;50.858;7.232;2022-07-30T05:42:53;51350.25;;;-142.34;22.99
12951;BME280;6540;50.858;7.232;2022-07-30T05:45:18;51303.84;;;-142.34;22.66
12951;BME280;6540;50.858;7.232;2022-07-30T05:47:44;51340.16;;;-142.34;22.79
12951;BME280;6540;50.858;7.232;2022-07-30T05:50:09;51301.84;;;-142.34;22.92
12951;BME280;6540;50.858;7.232;2022-07-30T05:52:36;51334.13;;;-142.34;23.33
12951;BME280;6540;50.858;7.232;2022-07-30T05:55:02;51293.78;;;-142.34;23.08
12951;BME280;6540;50.858;7.232;2022-07-30T05:57:27;51384.53;;;-142.34;23.63
12951;BME280;6540;50.858;7.232;2022-07-30T05:59:52;51332.09;;;-142.34;23.25
12951;BME280;6540;50.858;7.232;2022-07-30T06:02:18;51330.06;;;-142.34;23.36
12951;BME280;6540;50.858;7.232;2022-07-30T06:04:43;51418.84;;;-142.34;24.80
12951;BME280;6540;50.858;7.232;2022-07-30T06:07:09;51354.28;;;-142.34;23.26
12951;BME280;6540;50.858;7.232;2022-07-30T06:09:34;51326.03;;;-142.34;23.03
12951;BME280;6540;50.858;7.232;2022-07-30T06:11:59;51390.59;;;-142.34;23.65
12951;BME280;6540;50.858;7.232;2022-07-30T06:14:25;51358.31;;;-142.34;23.48
12951;BME280;6540;50.858;7.232;2022-07-30T06:16:50;51330.06;;;-142.34;22.84
12951;BME280;6540;50.858;7.232;2022-07-30T06:19:15;51273.59;;;-142.34;22.79
12951;BME280;6540;50.858;7.232;2022-07-30T06:21:41;51293.78;;;-142.34;22.58
12951;BME280;6540;50.858;7.232;2022-07-30T06:24:06;51267.56;;;-142.34;22.82
12951;BME280;6540;50.858;7.232;2022-07-30T06:26:32;51281.66;;;-142.34;22.65
12951;BME280;6540;50.858;7.232;2022-07-30T06:28:57;51253.44;;;-142.34;22.51
12951;BME280;6540;50.858;7.232;2022-07-30T06:31:22;51261.50;;;-142.34;22.41
12951;BME280;6540;50.858;7.232;2022-07-30T06:33:48;51261.50;;;-142.34;22.06
12951;BME280;6540;50.858;7.232;2022-07-30T06:36:14;51279.66;;;-142.34;22.58
12951;BME280;6540;50.858;7.232;2022-07-30T06:38:39;51211.06;;;-142.34;21.81
12951;BME280;6540;50.858;7.232;2022-07-30T06:41:04;51301.84;;;-142.34;23.36
12951;BME280;6540;50.858;7.232;2022-07-30T06:43:30;51261.50;;;-142.34;22.98
12951;BME280;6540;50.858;7.232;2022-07-30T06:45:55;51221.16;;;-142.34;22.77
12951;BME280;6540;50.858;7.232;2022-07-30T06:48:20;51205.03;;;-142.34;22.28
12951;BME280;6540;50.858;7.232;2022-07-30T06:50:46;51142.50;;;-142.34;21.84
12951;BME280;6540;50.858;7.232;2022-07-30T06:53:11;51176.78;;;-142.34;22.65
12951;BME280;6540;50.858;7.232;2022-07-30T06:55:37;51176.78;;;-142.34;22.38
12951;BME280;6540;50.858;7.232;2022-07-30T06:58:02;51132.41;;;-142.34;22.15
12951;BME280;6540;50.858;7.232;2022-07-30T07:00:28;51063.84;;;-142.34;21.69
12951;BME280;6540;50.858;7.232;2022-07-30T07:02:53;51037.63;;;-142.34;20.90
12951;BME280;6540;50.858;7.232;2022-07-30T07:05:19;51152.59;;;-142.34;22.45
12951;BME280;6540;50.858;7.232;2022-07-30T07:07:46;51110.22;;;-142.34;21.86
12951;BME280;6540;50.858;7.232;2022-07-30T07:10:12;51027.53;;;-142.34;21.28
12951;BME280;6540;50.858;7.232;2022-07-30T07:12:37;51122.34;;;-142.34;22.25
12951;BME280;6540;50.858;7.232;2022-07-30T07:15:03;51104.19;;;-142.34;22.03
12951;BME280;6540;50.858;7.232;2022-07-30T07:17:28;51136.44;;;-142.34;22.23
12951;BME280;6540;50.858;7.232;2022-07-30T07:19:53;51031.56;;;-142.34;21.82
12951;BME280;6540;50.858;7.232;2022-07-30T07:22:19;51148.56;;;-142.34;23.12
12951;BME280;6540;50.858;7.232;2022-07-30T07:24:44;51192.91;;;-142.34;23.25
12951;BME280;6540;50.858;7.232;2022-07-30T07:27:09;51088.03;;;-142.34;22.21
12951;BME280;6540;50.858;7.232;2022-07-30T07:29:35;51134.44;;;-142.34;22.36
12951;BME280;6540;50.858;7.232;2022-07-30T07:32:00;51269.56;;;-142.34;24.41
12951;BME280;6540;50.858;7.232;2022-07-30T07:34:25;51223.19;;;-142.34;22.60
12951;BME280;6540;50.858;7.232;2022-07-30T07:36:51;51209.06;;;-142.34;21.87
12951;BME280;6540;50.858;7.232;2022-07-30T07:39:16;51198.97;;;-142.34;22.50
12951;BME280;6540;50.858;7.232;2022-07-30T07:41:42;51259.47;;;-142.34;22.50
12951;BME280;6540;50.858;7.232;2022-07-30T07:44:07;51273.59;;;-142.34;22.58
12951;BME280;6540;50.858;7.232;2022-07-30T07:46:32;51414.78;;;-142.34;25.48
12951;BME280;6540;50.858;7.232;2022-07-30T07:48:58;51388.56;;;-142.34;24.89
12951;BME280;6540;50.858;7.232;2022-07-30T07:51:23;51459.16;;;-142.34;26.74
12951;BME280;6540;50.858;7.232;2022-07-30T07:53:48;51358.31;;;-142.34;23.94
12951;BME280;6540;50.858;7.232;2022-07-30T07:56:14;51265.53;;;-142.34;23.41
12951;BME280;6540;50.858;7.232;2022-07-30T07:58:40;51225.19;;;-142.34;22.42
12951;BME280;6540;50.858;7.232;2022-07-30T08:01:05;51338.16;;;-142.34;24.73
12951;BME280;6540;50.858;7.232;2022-07-30T08:03:30;51291.75;;;-142.34;23.26
12951;BME280;6540;50.858;7.232;2022-07-30T08:05:56;51241.34;;;-142.34;23.02
12951;BME280;6540;50.858;7.232;2022-07-30T08:08:21;51273.59;;;-142.34;23.48
12951;BME280;6540;50.858;7.232;2022-07-30T08:10:47;51414.78;;;-142.34;26.00
12951;BME280;6540;50.858;7.232;2022-07-30T08:13:13;51443.03;;;-142.34;26.72
12951;BME280;6540;50.858;7.232;2022-07-30T08:15:39;51461.19;;;-142.34;27.34
12951;BME280;6540;50.858;7.232;2022-07-30T08:18:04;51463.22;;;-142.34;26.34
12951;BME280;6540;50.858;7.232;2022-07-30T08:20:32;51469.25;;;-142.34;27.00
12951;BME280;6540;50.858;7.232;2022-07-30T08:22:57;51394.63;;;-142.34;24.85
12951;BME280;6540;50.858;7.232;2022-07-30T08:25:23;51283.69;;;-142.34;23.36
12951;BME280;6540;50.858;7.232;2022-07-30T08:27:48;51410.75;;;-142.34;25.66
12951;BME280;6540;50.858;7.232;2022-07-30T08:30:14;51481.34;;;-142.34;26.59
12951;BME280;6540;50.858;7.232;2022-07-30T08:32:39;51434.97;;;-142.34;26.73
12951;BME280;6540;50.858;7.232;2022-07-30T08:35:05;51418.84;;;-142.34;26.12
12951;BME280;6540;50.858;7.232;2022-07-30T08:37:31;51410.75;;;-142.34;26.25
12951;BME280;6540;50.858;7.232;2022-07-30T08:39:56;51426.91;;;-142.34;25.14
12951;BME280;6540;50.858;7.232;2022-07-30T08:42:22;51430.94;;;-142.34;25.94
12951;BME280;6540;50.858;7.232;2022-07-30T08:44:48;51410.75;;;-142.34;26.19
12951;BME280;6540;50.858;7.232;2022-07-30T08:47:16;51432.94;;;-142.34;26.29
12951;BME280;6540;50.858;7.232;2022-07-30T08:49:44;51406.72;;;-142.34;25.77
12951;BME280;6540;50.858;7.232;2022-07-30T08:52:11;51269.56;;;-142.34;23.21
12951;BME280;6540;50.858;7.232;2022-07-30T08:54:38;51422.88;;;-142.34;26.10
12951;BME280;6540;50.858;7.232;2022-07-30T08:57:04;51475.31;;;-142.34;25.93
12951;BME280;6540;50.858;7.232;2022-07-30T08:59:30;51350.25;;;-142.34;24.05
12951;BME280;6540;50.858;7.232;2022-07-30T09:01:57;51324.03;;;-142.34;24.36
12951;BME280;6540;50.858;7.232;2022-07-30T09:04:22;51436.97;;;-142.34;25.42
12951;BME280;6540;50.858;7.232;2022-07-30T09:06:47;51471.28;;;-142.34;25.87
12951;BME280;6540;50.858;7.232;2022-07-30T09:09:14;51356.31;;;-142.34;24.33
12951;BME280;6540;50.858;7.232;2022-07-30T09:11:39;51414.78;;;-142.34;24.57
12951;BME280;6540;50.858;7.232;2022-07-30T09:14:10;51370.41;;;-142.34;24.44
12951;BME280;6540;50.858;7.232;2022-07-30T09:16:36;51441.03;;;-142.34;25.65
12951;BME280;6540;50.858;7.232;2022-07-30T09:19:19;51408.75;;;-142.34;25.10
12951;BME280;6540;50.858;7.232;2022-07-30T09:22:00;51283.69;;;-142.34;23.31
12951;BME280;6540;50.858;7.232;2022-07-30T09:24:26;51334.13;;;-142.34;23.44
12951;BME280;6540;50.858;7.232;2022-07-30T09:26:56;51269.56;;;-142.34;23.10
12951;BME280;6540;50.858;7.232;2022-07-30T09:29:23;51372.44;;;-142.34;24.01
12951;BME280;6540;50.858;7.232;2022-07-30T09:32:15;51330.06;;;-142.34;23.78
12951;BME280;6540;50.858;7.232;2022-07-30T09:34:40;51493.47;;;-142.34;26.23
12951;BME280;6540;50.858;7.232;2022-07-30T09:39:37;51354.28;;;-142.34;23.38
12951;BME280;6540;50.858;7.232;2022-07-30T09:42:16;51449.09;;;-142.34;25.28
12951;BME280;6540;50.858;7.232;2022-07-30T09:44:42;51293.78;;;-142.34;22.55
12951;BME280;6540;50.858;7.232;2022-07-30T09:47:07;51269.56;;;-142.34;21.46
12951;BME280;6540;50.858;7.232;2022-07-30T09:49:33;51313.94;;;-142.34;22.36
12951;BME280;6540;50.858;7.232;2022-07-30T09:51:58;51281.66;;;-142.34;22.88
12951;BME280;6540;50.858;7.232;2022-07-30T09:54:43;51382.53;;;-142.34;24.06
12951;BME280;6540;50.858;7.232;2022-07-30T09:57:09;51285.72;;;-142.34;22.39
12951;BME280;6540;50.858;7.232;2022-07-30T09:59:34;51408.75;;;-142.34;24.07
12951;BME280;6540;50.858;7.232;2022-07-30T10:01:59;51414.78;;;-142.34;24.08
12951;BME280;6540;50.858;7.232;2022-07-30T10:04:30;51289.75;;;-142.34;22.99
12951;BME280;6540;50.858;7.232;2022-07-30T10:06:57;51390.59;;;-142.34;24.16
12951;BME280;6540;50.858;7.232;2022-07-30T10:09:34;51378.50;;;-142.34;23.73
12951;BME280;6540;50.858;7.232;2022-07-30T10:12:04;51364.38;;;-142.34;23.41
12951;BME280;6540;50.858;7.232;2022-07-30T10:14:32;51172.75;;;-142.34;22.04
12951;BME280;6540;50.858;7.232;2022-07-30T10:16:59;51245.38;;;-142.34;22.01
12951;BME280;6540;50.858;7.232;2022-07-30T10:19:24;51346.22;;;-142.34;23.83
12951;BME280;6540;50.858;7.232;2022-07-30T10:21:50;51362.34;;;-142.34;23.95
12951;BME280;6540;50.858;7.232;2022-07-30T10:24:18;51368.41;;;-142.34;23.72
12951;BME280;6540;50.858;7.232;2022-07-30T10:26:45;51301.84;;;-142.34;22.84
12951;BME280;6540;50.858;7.232;2022-07-30T10:29:11;51342.19;;;-142.34;23.73
12951;BME280;6540;50.858;7.232;2022-07-30T10:31:36;51342.19;;;-142.34;23.48
12951;BME280;6540;50.858;7.232;2022-07-30T10:34:03;51182.84;;;-142.34;22.11
12951;BME280;6540;50.858;7.232;2022-07-30T10:36:29;51180.81;;;-142.34;21.66
12951;BME280;6540;50.858;7.232;2022-07-30T10:38:55;51261.50;;;-142.34;22.18
12951;BME280;6540;50.858;7.232;2022-07-30T10:47:00;51223.19;;;-142.34;22.11
12951;BME280;6540;50.858;7.232;2022-07-30T10:49:30;51245.38;;;-142.34;22.01
12951;BME280;6540;50.858;7.232;2022-07-30T10:51:56;51241.34;;;-142.34;22.19
12951;BME280;6540;50.858;7.232;2022-07-30T10:54:43;51152.59;;;-142.34;20.86
12951;BME280;6540;50.858;7.232;2022-07-30T11:02:21;51390.59;;;-142.34;24.53
12951;BME280;6540;50.858;7.232;2022-07-30T11:04:48;51221.16;;;-142.34;21.82
12951;BME280;6540;50.858;7.232;2022-07-30T11:09:58;51332.09;;;-142.34;22.60
12951;BME280;6540;50.858;7.232;2022-07-30T11:15:11;51273.59;;;-142.34;22.05
12951;BME280;6540;50.858;7.232;2022-07-30T11:20:28;51261.50;;;-142.34;22.25
12951;BME280;6540;50.858;7.232;2022-07-30T11:23:07;51164.69;;;-142.34;20.78
12951;BME280;6540;50.858;7.232;2022-07-30T11:27:58;51390.59;;;-142.34;23.12
12951;BME280;6540;50.858;7.232;2022-07-30T11:32:54;51414.78;;;-142.34;24.03
12951;BME280;6540;50.858;7.232;2022-07-30T11:35:24;51368.41;;;-142.34;22.22
12951;BME280;6540;50.858;7.232;2022-07-30T11:40:21;51402.69;;;-142.34;22.11
12951;BME280;6540;50.858;7.232;2022-07-30T11:42:47;51194.94;;;-142.34;20.29
12951;BME280;6540;50.858;7.232;2022-07-30T11:47:55;51213.09;;;-142.34;20.67
12951;BME280;6540;50.858;7.232;2022-07-30T11:50:30;51221.16;;;-142.34;20.46
12951;BME280;6540;50.858;7.232;2022-07-30T11:52:59;51239.31;;;-142.34;21.15
12951;BME280;6540;50.858;7.232;2022-07-30T11:58:29;51328.06;;;-142.34;21.74
12951;BME280;6540;50.858;7.232;2022-07-30T12:00:58;51205.03;;;-142.34;20.89
12951;BME280;6540;50.858;7.232;2022-07-30T12:03:26;51277.63;;;-142.34;20.32
12951;BME280;6540;50.858;7.232;2022-07-30T12:05:53;51281.66;;;-142.34;20.74
12951;BME280;6540;50.858;7.232;2022-07-30T12:08:19;51350.25;;;-142.34;21.74
12951;BME280;6540;50.858;7.232;2022-07-30T12:10:57;51235.28;;;-142.34;20.60
12951;BME280;6540;50.858;7.232;2022-07-30T12:13:23;51338.16;;;-142.34;21.78
12951;BME280;6540;50.858;7.232;2022-07-30T12:15:50;51390.59;;;-142.34;22.26
12951;BME280;6540;50.858;7.232;2022-07-30T12:18:24;51245.38;;;-142.34;20.42
12951;BME280;6540;50.858;7.232;2022-07-30T12:21:04;51346.22;;;-142.34;22.11
12951;BME280;6540;50.858;7.232;2022-07-30T12:23:32;51374.44;;;-142.34;21.67
12951;BME280;6540;50.858;7.232;2022-07-30T12:25:58;51410.75;;;-142.34;23.04
12951;BME280;6540;50.858;7.232;2022-07-30T12:28:28;51227.22;;;-142.34;20.62
12951;BME280;6540;50.858;7.232;2022-07-30T12:30:55;51334.13;;;-142.34;21.32
12951;BME280;6540;50.858;7.232;2022-07-30T12:33:22;51320.00;;;-142.34;21.55
12951;BME280;6540;50.858;7.232;2022-07-30T12:35:53;51261.50;;;-142.34;20.60
12951;BME280;6540;50.858;7.232;2022-07-30T12:38:20;51239.31;;;-142.34;20.38
12951;BME280;6540;50.858;7.232;2022-07-30T12:40:53;51096.13;;;-142.34;19.88
12951;BME280;6540;50.858;7.232;2022-07-30T12:43:59;51114.25;;;-142.34;19.78
12951;BME280;6540;50.858;7.232;2022-07-30T12:46:25;51285.72;;;-142.34;21.15
12951;BME280;6540;50.858;7.232;2022-07-30T12:51:17;51291.75;;;-142.34;21.19
12951;BME280;6540;50.858;7.232;2022-07-30T12:53:43;51221.16;;;-142.34;20.52
12951;BME280;6540;50.858;7.232;2022-07-30T12:56:13;51092.06;;;-142.34;19.48
12951;BME280;6540;50.858;7.232;2022-07-30T12:58:39;51063.84;;;-142.34;19.01
12951;BME280;6540;50.858;7.232;2022-07-30T13:01:05;51281.66;;;-142.34;20.45
12951;BME280;6540;50.858;7.232;2022-07-30T13:03:30;51142.50;;;-142.34;19.80
12951;BME280;6540;50.858;7.232;2022-07-30T13:06:21;51279.66;;;-142.34;21.59
12951;BME280;6540;50.858;7.232;2022-07-30T13:08:55;51289.75;;;-142.34;21.01
12951;BME280;6540;50.858;7.232;2022-07-30T13:11:35;51233.25;;;-142.34;20.15
12951;BME280;6540;50.858;7.232;2022-07-30T13:14:01;51344.19;;;-142.34;21.40
12951;BME280;6540;50.858;7.232;2022-07-30T13:16:30;51257.47;;;-142.34;21.11
12951;BME280;6540;50.858;7.232;2022-07-30T13:18:55;51241.34;;;-142.34;20.37
12951;BME280;6540;50.858;7.232;2022-07-30T13:21:21;51267.56;;;-142.34;21.72
12951;BME280;6540;50.858;7.232;2022-07-30T13:23:46;51128.38;;;-142.34;19.83
12951;BME280;6540;50.858;7.232;2022-07-30T13:26:11;51211.06;;;-142.34;20.48
12951;BME280;6540;50.858;7.232;2022-07-30T13:28:37;51237.28;;;-142.34;21.17